sensor_id;sensor_type;location;lat;lon;timestamp;P1;durP1;ratioP1;P2;durP2;ratioP2
13807;SDS011;40769;51.512;5.494;2023-05-16T00:01:49;6.05;;;2.90;;
13807;SDS011;40769;51.512;5.494;2023-05-16T00:04:15;5.40;;;2.58;;
13807;SDS011;40769;51.512;5.494;2023-05-16T00:06:41;7.82;;;3.05;;
13807;SDS011;40769;51.512;5.494;2023-05-16T00:09:07;6.05;;;2.42;;
13807;SDS011;40769;51.512;5.494;2023-05-16T00:11:32;8.30;;;3.33;;
13807;SDS011;40769;51.512;5.494;2023-05-16T00:13:58;4.97;;;3.00;;
13807;SDS011;40769;51.512;5.494;2023-05-16T00:16:25;6.38;;;3.38;;
13807;SDS011;40769;51.512;5.494;2023-05-16T00:18:53;7.68;;;3.40;;
13807;SDS011;40769;51.512;5.494;2023-05-16T00:21:21;9.05;;;3.17;;
13807;SDS011;40769;51.512;5.494;2023-05-16T00:23:48;6.18;;;2.65;;
13807;SDS011;40769;51.512;5.494;2023-05-16T00:26:15;7.88;;;3.10;;
13807;SDS011;40769;51.512;5.494;2023-05-16T00:28:40;8.27;;;3.22;;
13807;SDS011;40769;51.512;5.494;2023-05-16T00:31:06;7.28;;;3.17;;
13807;SDS011;40769;51.512;5.494;2023-05-16T00:33:33;7.53;;;3.22;;
13807;SDS011;40769;51.512;5.494;2023-05-16T00:35:59;8.98;;;2.95;;
13807;SDS011;40769;51.512;5.494;2023-05-16T00:38:24;7.15;;;2.90;;
13807;SDS011;40769;51.512;5.494;2023-05-16T00:40:50;4.93;;;2.60;;
13807;SDS011;40769;51.512;5.494;2023-05-16T00:43:19;8.63;;;3.53;;
13807;SDS011;40769;51.512;5.494;2023-05-16T00:45:44;8.05;;;2.70;;
13807;SDS011;40769;51.512;5.494;2023-05-16T00:48:11;5.97;;;2.40;;
13807;SDS011;40769;51.512;5.494;2023-05-16T00:50:38;7.75;;;2.40;;
13807;SDS011;40769;51.512;5.494;2023-05-16T00:53:04;8.55;;;2.85;;
13807;SDS011;40769;51.512;5.494;2023-05-16T00:55:30;7.97;;;2.88;;
13807;SDS011;40769;51.512;5.494;2023-05-16T00:57:56;7.70;;;3.10;;
13807;SDS011;40769;51.512;5.494;2023-05-16T01:00:23;6.00;;;2.80;;
13807;SDS011;40769;51.512;5.494;2023-05-16T01:02:49;5.45;;;2.40;;
13807;SDS011;40769;51.512;5.494;2023-05-16T01:05:17;8.07;;;2.50;;
13807;SDS011;40769;51.512;5.494;2023-05-16T01:07:44;7.65;;;2.65;;
13807;SDS011;40769;51.512;5.494;2023-05-16T01:10:09;5.90;;;2.47;;
13807;SDS011;40769;51.512;5.494;2023-05-16T01:12:52;8.10;;;2.75;;
13807;SDS011;40769;51.512;5.494;2023-05-16T01:15:37;6.40;;;2.55;;
13807;SDS011;40769;51.512;5.494;2023-05-16T01:20:52;8.40;;;2.83;;
13807;SDS011;40769;51.512;5.494;2023-05-16T01:26:22;5.78;;;2.65;;
13807;SDS011;40769;51.512;5.494;2023-05-16T01:28:51;6.53;;;2.85;;
13807;SDS011;40769;51.512;5.494;2023-05-16T01:31:18;6.13;;;2.80;;
13807;SDS011;40769;51.512;5.494;2023-05-16T01:33:47;6.20;;;2.47;;
13807;SDS011;40769;51.512;5.494;2023-05-16T01:39:19;5.75;;;2.35;;
13807;SDS011;40769;51.512;5.494;2023-05-16T01:41:59;5.93;;;2.40;;
13807;SDS011;40769;51.512;5.494;2023-05-16T01:44:54;5.05;;;2.50;;
13807;SDS011;40769;51.512;5.494;2023-05-16T01:47:16;7.43;;;2.45;;
13807;SDS011;40769;51.512;5.494;2023-05-16T01:53:01;5.43;;;2.08;;
13807;SDS011;40769;51.512;5.494;2023-05-16T01:55:43;5.60;;;2.40;;
13807;SDS011;40769;51.512;5.494;2023-05-16T01:58:11;4.78;;;2.22;;
13807;SDS011;40769;51.512;5.494;2023-05-16T02:00:39;5.53;;;2.22;;
13807;SDS011;40769;51.512;5.494;2023-05-16T02:03:05;4.63;;;2.30;;
13807;SDS011;40769;51.512;5.494;2023-05-16T02:05:30;8.40;;;2.55;;
13807;SDS011;40769;51.512;5.494;2023-05-16T02:07:56;5.68;;;2.50;;
13807;SDS011;40769;51.512;5.494;2023-05-16T02:10:23;9.02;;;2.85;;
13807;SDS011;40769;51.512;5.494;2023-05-16T02:12:49;4.05;;;2.03;;
13807;SDS011;40769;51.512;5.494;2023-05-16T02:15:16;6.25;;;2.17;;
13807;SDS011;40769;51.512;5.494;2023-05-16T02:17:42;4.72;;;2.05;;
13807;SDS011;40769;51.512;5.494;2023-05-16T02:20:07;3.13;;;1.58;;
13807;SDS011;40769;51.512;5.494;2023-05-16T02:22:34;4.32;;;1.80;;
13807;SDS011;40769;51.512;5.494;2023-05-16T02:25:01;4.13;;;1.83;;
13807;SDS011;40769;51.512;5.494;2023-05-16T02:27:27;5.88;;;2.17;;
13807;SDS011;40769;51.512;5.494;2023-05-16T02:29:53;5.82;;;2.33;;
13807;SDS011;40769;51.512;5.494;2023-05-16T02:32:19;5.88;;;2.35;;
13807;SDS011;40769;51.512;5.494;2023-05-16T02:34:45;6.47;;;2.55;;
13807;SDS011;40769;51.512;5.494;2023-05-16T02:37:13;5.45;;;2.00;;
13807;SDS011;40769;51.512;5.494;2023-05-16T02:39:38;6.47;;;1.92;;
13807;SDS011;40769;51.512;5.494;2023-05-16T02:42:05;4.53;;;1.80;;
13807;SDS011;40769;51.512;5.494;2023-05-16T02:44:31;5.32;;;2.10;;
13807;SDS011;40769;51.512;5.494;2023-05-16T02:46:57;3.55;;;2.00;;
13807;SDS011;40769;51.512;5.494;2023-05-16T02:49:23;5.22;;;1.83;;
13807;SDS011;40769;51.512;5.494;2023-05-16T02:51:49;5.95;;;2.20;;
13807;SDS011;40769;51.512;5.494;2023-05-16T02:54:14;5.55;;;2.00;;
13807;SDS011;40769;51.512;5.494;2023-05-16T02:56:40;7.18;;;2.30;;
13807;SDS011;40769;51.512;5.494;2023-05-16T02:59:06;4.75;;;1.75;;
13807;SDS011;40769;51.512;5.494;2023-05-16T03:01:32;4.20;;;1.77;;
13807;SDS011;40769;51.512;5.494;2023-05-16T03:03:58;5.15;;;2.40;;
13807;SDS011;40769;51.512;5.494;2023-05-16T03:06:23;4.80;;;2.00;;
13807;SDS011;40769;51.512;5.494;2023-05-16T03:08:49;6.15;;;1.95;;
13807;SDS011;40769;51.512;5.494;2023-05-16T03:11:15;4.35;;;2.08;;
13807;SDS011;40769;51.512;5.494;2023-05-16T03:13:44;3.83;;;2.00;;
13807;SDS011;40769;51.512;5.494;2023-05-16T03:16:10;5.68;;;2.00;;
13807;SDS011;40769;51.512;5.494;2023-05-16T03:18:35;4.28;;;2.00;;
13807;SDS011;40769;51.512;5.494;2023-05-16T03:21:03;4.40;;;1.90;;
13807;SDS011;40769;51.512;5.494;2023-05-16T03:23:29;3.63;;;1.88;;
13807;SDS011;40769;51.512;5.494;2023-05-16T03:25:55;6.88;;;2.30;;
13807;SDS011;40769;51.512;5.494;2023-05-16T03:28:20;4.55;;;2.13;;
13807;SDS011;40769;51.512;5.494;2023-05-16T03:30:46;5.35;;;2.08;;
13807;SDS011;40769;51.512;5.494;2023-05-16T03:33:12;5.18;;;2.50;;
13807;SDS011;40769;51.512;5.494;2023-05-16T03:35:37;6.80;;;2.22;;
13807;SDS011;40769;51.512;5.494;2023-05-16T03:38:06;3.60;;;2.10;;
13807;SDS011;40769;51.512;5.494;2023-05-16T03:40:32;4.47;;;2.00;;
13807;SDS011;40769;51.512;5.494;2023-05-16T03:42:58;5.60;;;2.20;;
13807;SDS011;40769;51.512;5.494;2023-05-16T03:45:23;5.30;;;2.33;;
13807;SDS011;40769;51.512;5.494;2023-05-16T03:47:49;4.10;;;1.75;;
13807;SDS011;40769;51.512;5.494;2023-05-16T03:50:15;5.95;;;2.22;;
13807;SDS011;40769;51.512;5.494;2023-05-16T03:52:41;4.13;;;1.98;;
13807;SDS011;40769;51.512;5.494;2023-05-16T03:55:07;5.50;;;2.00;;
13807;SDS011;40769;51.512;5.494;2023-05-16T03:57:33;4.35;;;2.05;;
13807;SDS011;40769;51.512;5.494;2023-05-16T04:00:02;4.70;;;1.90;;
13807;SDS011;40769;51.512;5.494;2023-05-16T04:02:27;3.90;;;1.88;;
13807;SDS011;40769;51.512;5.494;2023-05-16T04:04:53;6.50;;;2.17;;
13807;SDS011;40769;51.512;5.494;2023-05-16T04:07:19;5.95;;;2.08;;
13807;SDS011;40769;51.512;5.494;2023-05-16T04:09:44;5.53;;;2.08;;
13807;SDS011;40769;51.512;5.494;2023-05-16T04:12:10;6.45;;;2.17;;
13807;SDS011;40769;51.512;5.494;2023-05-16T04:14:36;4.97;;;2.20;;
13807;SDS011;40769;51.512;5.494;2023-05-16T04:17:02;5.38;;;2.40;;
13807;SDS011;40769;51.512;5.494;2023-05-16T04:19:27;6.22;;;2.78;;
13807;SDS011;40769;51.512;5.494;2023-05-16T04:21:53;3.88;;;1.90;;
13807;SDS011;40769;51.512;5.494;2023-05-16T04:24:19;4.35;;;1.33;;
13807;SDS011;40769;51.512;5.494;2023-05-16T04:26:45;6.68;;;2.30;;
13807;SDS011;40769;51.512;5.494;2023-05-16T04:29:11;4.40;;;2.28;;
13807;SDS011;40769;51.512;5.494;2023-05-16T04:31:38;3.80;;;2.15;;
13807;SDS011;40769;51.512;5.494;2023-05-16T04:34:03;6.35;;;2.45;;
13807;SDS011;40769;51.512;5.494;2023-05-16T04:36:29;4.50;;;2.00;;
13807;SDS011;40769;51.512;5.494;2023-05-16T04:38:56;5.57;;;1.90;;
13807;SDS011;40769;51.512;5.494;2023-05-16T04:41:22;5.75;;;1.92;;
13807;SDS011;40769;51.512;5.494;2023-05-16T04:43:48;5.88;;;2.50;;
13807;SDS011;40769;51.512;5.494;2023-05-16T04:46:13;5.78;;;2.78;;
13807;SDS011;40769;51.512;5.494;2023-05-16T04:48:40;5.03;;;2.55;;
13807;SDS011;40769;51.512;5.494;2023-05-16T04:51:05;7.20;;;2.53;;
13807;SDS011;40769;51.512;5.494;2023-05-16T04:53:31;6.13;;;2.47;;
13807;SDS011;40769;51.512;5.494;2023-05-16T04:55:57;4.15;;;2.03;;
13807;SDS011;40769;51.512;5.494;2023-05-16T04:58:24;5.90;;;2.25;;
13807;SDS011;40769;51.512;5.494;2023-05-16T05:00:50;5.78;;;2.45;;
13807;SDS011;40769;51.512;5.494;2023-05-16T05:03:19;7.97;;;2.53;;
13807;SDS011;40769;51.512;5.494;2023-05-16T05:05:45;5.18;;;2.97;;
13807;SDS011;40769;51.512;5.494;2023-05-16T05:08:11;5.00;;;2.33;;
13807;SDS011;40769;51.512;5.494;2023-05-16T05:10:36;5.63;;;2.25;;
13807;SDS011;40769;51.512;5.494;2023-05-16T05:13:02;4.55;;;1.85;;
13807;SDS011;40769;51.512;5.494;2023-05-16T05:15:27;4.40;;;2.13;;
13807;SDS011;40769;51.512;5.494;2023-05-16T05:17:53;4.82;;;2.20;;
13807;SDS011;40769;51.512;5.494;2023-05-16T05:20:19;6.60;;;2.80;;
13807;SDS011;40769;51.512;5.494;2023-05-16T05:22:44;4.95;;;2.30;;
13807;SDS011;40769;51.512;5.494;2023-05-16T05:25:10;5.40;;;2.38;;
13807;SDS011;40769;51.512;5.494;2023-05-16T05:27:36;3.20;;;1.80;;
13807;SDS011;40769;51.512;5.494;2023-05-16T05:30:02;4.93;;;2.45;;
13807;SDS011;40769;51.512;5.494;2023-05-16T05:32:28;6.90;;;2.40;;
13807;SDS011;40769;51.512;5.494;2023-05-16T05:34:54;4.15;;;2.45;;
13807;SDS011;40769;51.512;5.494;2023-05-16T05:37:19;5.85;;;2.33;;
13807;SDS011;40769;51.512;5.494;2023-05-16T05:39:45;5.80;;;2.35;;
13807;SDS011;40769;51.512;5.494;2023-05-16T05:42:11;4.18;;;1.80;;
13807;SDS011;40769;51.512;5.494;2023-05-16T05:44:36;6.63;;;2.72;;
13807;SDS011;40769;51.512;5.494;2023-05-16T05:47:03;6.75;;;2.50;;
13807;SDS011;40769;51.512;5.494;2023-05-16T05:49:30;3.20;;;1.73;;
13807;SDS011;40769;51.512;5.494;2023-05-16T05:51:56;7.07;;;2.67;;
13807;SDS011;40769;51.512;5.494;2023-05-16T05:54:22;7.20;;;2.58;;
13807;SDS011;40769;51.512;5.494;2023-05-16T05:56:48;3.50;;;1.95;;
13807;SDS011;40769;51.512;5.494;2023-05-16T05:59:13;6.22;;;2.55;;
13807;SDS011;40769;51.512;5.494;2023-05-16T06:01:39;7.63;;;2.45;;
13807;SDS011;40769;51.512;5.494;2023-05-16T06:04:06;5.82;;;2.17;;
13807;SDS011;40769;51.512;5.494;2023-05-16T06:06:31;6.88;;;2.13;;
13807;SDS011;40769;51.512;5.494;2023-05-16T06:08:57;4.18;;;1.70;;
13807;SDS011;40769;51.512;5.494;2023-05-16T06:11:23;7.60;;;2.05;;
13807;SDS011;40769;51.512;5.494;2023-05-16T06:13:51;4.85;;;2.10;;
13807;SDS011;40769;51.512;5.494;2023-05-16T06:16:17;4.90;;;1.77;;
13807;SDS011;40769;51.512;5.494;2023-05-16T06:18:43;4.43;;;1.60;;
13807;SDS011;40769;51.512;5.494;2023-05-16T06:21:08;8.02;;;2.50;;
13807;SDS011;40769;51.512;5.494;2023-05-16T06:23:34;4.68;;;2.28;;
13807;SDS011;40769;51.512;5.494;2023-05-16T06:26:01;5.30;;;1.70;;
13807;SDS011;40769;51.512;5.494;2023-05-16T06:28:27;5.10;;;1.90;;
13807;SDS011;40769;51.512;5.494;2023-05-16T06:30:53;5.53;;;2.20;;
13807;SDS011;40769;51.512;5.494;2023-05-16T06:33:19;5.18;;;2.10;;
13807;SDS011;40769;51.512;5.494;2023-05-16T06:35:45;3.40;;;1.55;;
13807;SDS011;40769;51.512;5.494;2023-05-16T06:38:12;5.32;;;1.83;;
13807;SDS011;40769;51.512;5.494;2023-05-16T06:40:39;4.38;;;1.73;;
13807;SDS011;40769;51.512;5.494;2023-05-16T06:43:05;5.18;;;1.73;;
13807;SDS011;40769;51.512;5.494;2023-05-16T06:45:32;3.17;;;1.48;;
13807;SDS011;40769;51.512;5.494;2023-05-16T06:47:57;4.38;;;1.67;;
13807;SDS011;40769;51.512;5.494;2023-05-16T06:50:23;5.93;;;1.60;;
13807;SDS011;40769;51.512;5.494;2023-05-16T06:52:48;5.70;;;1.90;;
13807;SDS011;40769;51.512;5.494;2023-05-16T06:55:14;5.70;;;1.95;;
13807;SDS011;40769;51.512;5.494;2023-05-16T06:57:40;3.92;;;1.50;;
13807;SDS011;40769;51.512;5.494;2023-05-16T07:00:05;5.00;;;1.60;;
13807;SDS011;40769;51.512;5.494;2023-05-16T07:02:32;4.68;;;1.40;;
13807;SDS011;40769;51.512;5.494;2023-05-16T07:04:58;5.20;;;1.60;;
13807;SDS011;40769;51.512;5.494;2023-05-16T07:07:23;4.15;;;1.50;;
13807;SDS011;40769;51.512;5.494;2023-05-16T07:09:49;4.50;;;1.50;;
13807;SDS011;40769;51.512;5.494;2023-05-16T07:12:15;3.75;;;1.20;;
13807;SDS011;40769;51.512;5.494;2023-05-16T07:14:40;3.92;;;1.42;;
13807;SDS011;40769;51.512;5.494;2023-05-16T07:17:07;2.55;;;1.25;;
13807;SDS011;40769;51.512;5.494;2023-05-16T07:19:35;2.65;;;1.23;;
13807;SDS011;40769;51.512;5.494;2023-05-16T07:22:01;2.67;;;1.17;;
13807;SDS011;40769;51.512;5.494;2023-05-16T07:24:27;3.60;;;1.50;;
13807;SDS011;40769;51.512;5.494;2023-05-16T07:26:53;3.63;;;1.38;;
13807;SDS011;40769;51.512;5.494;2023-05-16T07:29:18;4.13;;;1.65;;
13807;SDS011;40769;51.512;5.494;2023-05-16T07:31:44;2.33;;;1.05;;
13807;SDS011;40769;51.512;5.494;2023-05-16T07:34:10;2.58;;;1.02;;
13807;SDS011;40769;51.512;5.494;2023-05-16T07:36:36;4.32;;;1.33;;
13807;SDS011;40769;51.512;5.494;2023-05-16T07:39:02;2.65;;;1.27;;
13807;SDS011;40769;51.512;5.494;2023-05-16T07:41:28;3.78;;;1.23;;
13807;SDS011;40769;51.512;5.494;2023-05-16T07:43:54;4.70;;;1.30;;
13807;SDS011;40769;51.512;5.494;2023-05-16T07:46:19;3.72;;;1.30;;
13807;SDS011;40769;51.512;5.494;2023-05-16T07:48:45;2.65;;;1.05;;
13807;SDS011;40769;51.512;5.494;2023-05-16T07:51:11;2.63;;;1.15;;
13807;SDS011;40769;51.512;5.494;2023-05-16T07:53:36;3.63;;;1.60;;
13807;SDS011;40769;51.512;5.494;2023-05-16T07:56:02;2.95;;;1.40;;
13807;SDS011;40769;51.512;5.494;2023-05-16T07:58:28;3.42;;;1.45;;
13807;SDS011;40769;51.512;5.494;2023-05-16T08:00:54;8.38;;;1.40;;
13807;SDS011;40769;51.512;5.494;2023-05-16T08:03:19;2.63;;;0.90;;
13807;SDS011;40769;51.512;5.494;2023-05-16T08:05:45;1.90;;;0.82;;
13807;SDS011;40769;51.512;5.494;2023-05-16T08:08:12;1.70;;;0.95;;
13807;SDS011;40769;51.512;5.494;2023-05-16T08:10:38;3.42;;;1.10;;
13807;SDS011;40769;51.512;5.494;2023-05-16T08:13:04;3.38;;;1.15;;
13807;SDS011;40769;51.512;5.494;2023-05-16T08:15:29;2.80;;;1.20;;
13807;SDS011;40769;51.512;5.494;2023-05-16T08:17:58;4.28;;;1.40;;
13807;SDS011;40769;51.512;5.494;2023-05-16T08:20:25;2.30;;;1.15;;
13807;SDS011;40769;51.512;5.494;2023-05-16T08:22:51;3.22;;;1.23;;
13807;SDS011;40769;51.512;5.494;2023-05-16T08:25:16;2.92;;;1.05;;
13807;SDS011;40769;51.512;5.494;2023-05-16T08:27:45;2.53;;;1.08;;
13807;SDS011;40769;51.512;5.494;2023-05-16T08:30:13;2.10;;;1.15;;
13807;SDS011;40769;51.512;5.494;2023-05-16T08:32:38;2.20;;;1.13;;
13807;SDS011;40769;51.512;5.494;2023-05-16T08:35:04;3.13;;;1.30;;
13807;SDS011;40769;51.512;5.494;2023-05-16T08:37:30;3.55;;;0.98;;
13807;SDS011;40769;51.512;5.494;2023-05-16T08:39:57;2.65;;;1.10;;
13807;SDS011;40769;51.512;5.494;2023-05-16T08:42:23;4.63;;;1.13;;
13807;SDS011;40769;51.512;5.494;2023-05-16T08:44:49;4.43;;;1.42;;
13807;SDS011;40769;51.512;5.494;2023-05-16T08:47:18;2.75;;;1.10;;
13807;SDS011;40769;51.512;5.494;2023-05-16T08:49:46;3.88;;;1.05;;
13807;SDS011;40769;51.512;5.494;2023-05-16T08:52:12;2.22;;;1.17;;
13807;SDS011;40769;51.512;5.494;2023-05-16T08:54:42;3.03;;;0.88;;
13807;SDS011;40769;51.512;5.494;2023-05-16T08:57:08;1.90;;;0.73;;
13807;SDS011;40769;51.512;5.494;2023-05-16T08:59:34;1.98;;;1.00;;
13807;SDS011;40769;51.512;5.494;2023-05-16T09:02:00;2.67;;;1.10;;
13807;SDS011;40769;51.512;5.494;2023-05-16T09:04:26;4.40;;;0.88;;
13807;SDS011;40769;51.512;5.494;2023-05-16T09:06:52;1.88;;;0.80;;
13807;SDS011;40769;51.512;5.494;2023-05-16T09:09:18;3.47;;;1.00;;
13807;SDS011;40769;51.512;5.494;2023-05-16T09:11:44;3.28;;;1.02;;
13807;SDS011;40769;51.512;5.494;2023-05-16T09:14:10;4.35;;;1.13;;
13807;SDS011;40769;51.512;5.494;2023-05-16T09:16:35;2.63;;;0.70;;
13807;SDS011;40769;51.512;5.494;2023-05-16T09:19:01;2.75;;;0.90;;
13807;SDS011;40769;51.512;5.494;2023-05-16T09:21:29;1.98;;;0.80;;
13807;SDS011;40769;51.512;5.494;2023-05-16T09:24:02;3.97;;;0.90;;
13807;SDS011;40769;51.512;5.494;2023-05-16T09:26:28;2.58;;;1.00;;
13807;SDS011;40769;51.512;5.494;2023-05-16T09:28:55;3.47;;;1.02;;
13807;SDS011;40769;51.512;5.494;2023-05-16T09:31:21;2.03;;;1.00;;
13807;SDS011;40769;51.512;5.494;2023-05-16T09:33:50;3.75;;;1.00;;
13807;SDS011;40769;51.512;5.494;2023-05-16T09:36:22;2.42;;;0.90;;
13807;SDS011;40769;51.512;5.494;2023-05-16T09:38:51;3.55;;;1.20;;
13807;SDS011;40769;51.512;5.494;2023-05-16T09:41:17;5.25;;;1.30;;
13807;SDS011;40769;51.512;5.494;2023-05-16T09:43:45;2.80;;;1.00;;
13807;SDS011;40769;51.512;5.494;2023-05-16T09:46:11;2.67;;;0.77;;
13807;SDS011;40769;51.512;5.494;2023-05-16T09:48:47;2.83;;;1.00;;
13807;SDS011;40769;51.512;5.494;2023-05-16T09:51:16;4.50;;;1.13;;
13807;SDS011;40769;51.512;5.494;2023-05-16T09:53:46;1.30;;;0.70;;
13807;SDS011;40769;51.512;5.494;2023-05-16T09:56:13;1.58;;;0.80;;
13807;SDS011;40769;51.512;5.494;2023-05-16T09:58:40;2.60;;;0.90;;
13807;SDS011;40769;51.512;5.494;2023-05-16T10:01:07;2.10;;;0.80;;
13807;SDS011;40769;51.512;5.494;2023-05-16T10:03:35;2.22;;;0.82;;
13807;SDS011;40769;51.512;5.494;2023-05-16T10:06:03;1.50;;;0.70;;
13807;SDS011;40769;51.512;5.494;2023-05-16T10:08:30;2.08;;;0.85;;
13807;SDS011;40769;51.512;5.494;2023-05-16T10:11:00;1.90;;;0.70;;
13807;SDS011;40769;51.512;5.494;2023-05-16T10:13:30;2.55;;;0.65;;
13807;SDS011;40769;51.512;5.494;2023-05-16T10:15:57;1.95;;;0.75;;
13807;SDS011;40769;51.512;5.494;2023-05-16T10:18:27;2.42;;;1.05;;
13807;SDS011;40769;51.512;5.494;2023-05-16T10:20:54;3.55;;;1.08;;
13807;SDS011;40769;51.512;5.494;2023-05-16T10:23:24;1.90;;;0.90;;
13807;SDS011;40769;51.512;5.494;2023-05-16T10:25:51;3.08;;;1.15;;
13807;SDS011;40769;51.512;5.494;2023-05-16T10:28:19;1.45;;;0.73;;
13807;SDS011;40769;51.512;5.494;2023-05-16T10:30:46;2.42;;;0.70;;
13807;SDS011;40769;51.512;5.494;2023-05-16T10:33:12;1.35;;;0.77;;
13807;SDS011;40769;51.512;5.494;2023-05-16T10:35:39;3.13;;;0.80;;
13807;SDS011;40769;51.512;5.494;2023-05-16T10:38:06;1.80;;;0.73;;
13807;SDS011;40769;51.512;5.494;2023-05-16T10:40:36;2.60;;;1.00;;
13807;SDS011;40769;51.512;5.494;2023-05-16T10:43:04;2.17;;;0.80;;
13807;SDS011;40769;51.512;5.494;2023-05-16T10:45:31;2.38;;;0.73;;
13807;SDS011;40769;51.512;5.494;2023-05-16T10:48:06;3.95;;;1.02;;
13807;SDS011;40769;51.512;5.494;2023-05-16T10:50:43;3.15;;;0.82;;
13807;SDS011;40769;51.512;5.494;2023-05-16T11:06:26;1.92;;;0.90;;
13807;SDS011;40769;51.512;5.494;2023-05-16T11:08:57;1.55;;;0.90;;
13807;SDS011;40769;51.512;5.494;2023-05-16T11:11:41;2.75;;;1.02;;
13807;SDS011;40769;51.512;5.494;2023-05-16T11:17:13;3.22;;;1.17;;
13807;SDS011;40769;51.512;5.494;2023-05-16T11:19:49;2.65;;;1.27;;
13807;SDS011;40769;51.512;5.494;2023-05-16T11:22:30;3.55;;;0.98;;
13807;SDS011;40769;51.512;5.494;2023-05-16T11:27:31;2.70;;;0.77;;
13807;SDS011;40769;51.512;5.494;2023-05-16T11:32:29;1.63;;;0.90;;
13807;SDS011;40769;51.512;5.494;2023-05-16T11:34:55;2.60;;;1.30;;
13807;SDS011;40769;51.512;5.494;2023-05-16T11:37:22;2.17;;;1.00;;
13807;SDS011;40769;51.512;5.494;2023-05-16T11:39:48;3.15;;;0.98;;
13807;SDS011;40769;51.512;5.494;2023-05-16T11:42:13;1.17;;;0.70;;
13807;SDS011;40769;51.512;5.494;2023-05-16T11:44:39;2.38;;;1.02;;
13807;SDS011;40769;51.512;5.494;2023-05-16T11:47:05;1.98;;;1.00;;
13807;SDS011;40769;51.512;5.494;2023-05-16T11:49:31;2.80;;;0.90;;
13807;SDS011;40769;51.512;5.494;2023-05-16T11:51:59;3.17;;;1.10;;
13807;SDS011;40769;51.512;5.494;2023-05-16T11:54:24;1.50;;;1.20;;
13807;SDS011;40769;51.512;5.494;2023-05-16T11:56:50;2.90;;;1.10;;
13807;SDS011;40769;51.512;5.494;2023-05-16T11:59:17;1.85;;;1.10;;
13807;SDS011;40769;51.512;5.494;2023-05-16T12:01:43;1.90;;;1.10;;
13807;SDS011;40769;51.512;5.494;2023-05-16T12:04:09;3.38;;;1.20;;
13807;SDS011;40769;51.512;5.494;2023-05-16T12:06:36;4.47;;;1.58;;
13807;SDS011;40769;51.512;5.494;2023-05-16T12:09:05;3.78;;;1.20;;
13807;SDS011;40769;51.512;5.494;2023-05-16T12:11:36;3.35;;;1.30;;
13807;SDS011;40769;51.512;5.494;2023-05-16T12:14:06;3.33;;;1.10;;
13807;SDS011;40769;51.512;5.494;2023-05-16T12:16:33;2.35;;;1.13;;
13807;SDS011;40769;51.512;5.494;2023-05-16T12:19:01;2.13;;;1.10;;
13807;SDS011;40769;51.512;5.494;2023-05-16T12:21:28;1.63;;;0.80;;
13807;SDS011;40769;51.512;5.494;2023-05-16T12:23:55;1.60;;;0.90;;
13807;SDS011;40769;51.512;5.494;2023-05-16T12:26:24;4.00;;;1.48;;
13807;SDS011;40769;51.512;5.494;2023-05-16T12:28:53;2.95;;;1.20;;
13807;SDS011;40769;51.512;5.494;2023-05-16T12:31:22;2.45;;;0.88;;
13807;SDS011;40769;51.512;5.494;2023-05-16T12:33:51;1.98;;;1.00;;
13807;SDS011;40769;51.512;5.494;2023-05-16T12:36:18;2.00;;;1.10;;
13807;SDS011;40769;51.512;5.494;2023-05-16T12:38:47;1.83;;;0.90;;
13807;SDS011;40769;51.512;5.494;2023-05-16T12:43:45;2.85;;;1.20;;
13807;SDS011;40769;51.512;5.494;2023-05-16T12:46:11;2.65;;;1.23;;
13807;SDS011;40769;51.512;5.494;2023-05-16T12:48:37;2.15;;;1.00;;
13807;SDS011;40769;51.512;5.494;2023-05-16T12:51:13;3.63;;;1.33;;
13807;SDS011;40769;51.512;5.494;2023-05-16T12:53:45;1.98;;;1.10;;
13807;SDS011;40769;51.512;5.494;2023-05-16T12:56:11;2.47;;;1.20;;
13807;SDS011;40769;51.512;5.494;2023-05-16T12:58:39;2.63;;;1.10;;
13807;SDS011;40769;51.512;5.494;2023-05-16T13:01:05;2.85;;;1.10;;
13807;SDS011;40769;51.512;5.494;2023-05-16T13:03:31;1.58;;;1.00;;
13807;SDS011;40769;51.512;5.494;2023-05-16T13:05:58;1.73;;;0.80;;
13807;SDS011;40769;51.512;5.494;2023-05-16T13:08:24;2.47;;;1.17;;
13807;SDS011;40769;51.512;5.494;2023-05-16T13:10:50;2.50;;;1.30;;
13807;SDS011;40769;51.512;5.494;2023-05-16T13:13:16;1.70;;;1.13;;
13807;SDS011;40769;51.512;5.494;2023-05-16T13:15:43;3.25;;;1.15;;
13807;SDS011;40769;51.512;5.494;2023-05-16T13:18:09;2.17;;;1.02;;
13807;SDS011;40769;51.512;5.494;2023-05-16T13:20:35;2.95;;;1.20;;
13807;SDS011;40769;51.512;5.494;2023-05-16T13:23:02;2.17;;;1.02;;
13807;SDS011;40769;51.512;5.494;2023-05-16T13:25:29;3.80;;;1.17;;
13807;SDS011;40769;51.512;5.494;2023-05-16T13:27:55;2.00;;;1.00;;
13807;SDS011;40769;51.512;5.494;2023-05-16T13:30:20;2.17;;;0.90;;
13807;SDS011;40769;51.512;5.494;2023-05-16T13:32:46;2.85;;;1.10;;
13807;SDS011;40769;51.512;5.494;2023-05-16T13:35:12;2.05;;;1.15;;
13807;SDS011;40769;51.512;5.494;2023-05-16T13:37:38;1.65;;;1.00;;
13807;SDS011;40769;51.512;5.494;2023-05-16T13:40:05;1.70;;;1.10;;
13807;SDS011;40769;51.512;5.494;2023-05-16T13:42:34;2.67;;;1.30;;
13807;SDS011;40769;51.512;5.494;2023-05-16T13:45:01;2.63;;;1.20;;
13807;SDS011;40769;51.512;5.494;2023-05-16T13:47:30;4.03;;;1.17;;
13807;SDS011;40769;51.512;5.494;2023-05-16T13:49:56;2.35;;;1.17;;
13807;SDS011;40769;51.512;5.494;2023-05-16T13:52:23;3.00;;;1.10;;
13807;SDS011;40769;51.512;5.494;2023-05-16T13:54:49;2.33;;;1.13;;
13807;SDS011;40769;51.512;5.494;2023-05-16T13:57:15;1.80;;;1.02;;
13807;SDS011;40769;51.512;5.494;2023-05-16T13:59:41;2.28;;;1.15;;
13807;SDS011;40769;51.512;5.494;2023-05-16T14:02:07;2.25;;;1.00;;
13807;SDS011;40769;51.512;5.494;2023-05-16T14:04:32;3.10;;;1.05;;
13807;SDS011;40769;51.512;5.494;2023-05-16T14:06:58;1.92;;;1.00;;
13807;SDS011;40769;51.512;5.494;2023-05-16T14:09:24;2.75;;;1.38;;
13807;SDS011;40769;51.512;5.494;2023-05-16T14:11:49;2.53;;;1.30;;
13807;SDS011;40769;51.512;5.494;2023-05-16T14:14:15;2.28;;;1.10;;
13807;SDS011;40769;51.512;5.494;2023-05-16T14:16:44;1.83;;;1.05;;
13807;SDS011;40769;51.512;5.494;2023-05-16T14:19:10;2.58;;;1.00;;
13807;SDS011;40769;51.512;5.494;2023-05-16T14:21:36;1.75;;;0.88;;
13807;SDS011;40769;51.512;5.494;2023-05-16T14:24:02;1.55;;;0.93;;
13807;SDS011;40769;51.512;5.494;2023-05-16T14:26:28;2.78;;;1.10;;
13807;SDS011;40769;51.512;5.494;2023-05-16T14:28:56;2.05;;;1.17;;
13807;SDS011;40769;51.512;5.494;2023-05-16T14:31:21;2.10;;;1.00;;
13807;SDS011;40769;51.512;5.494;2023-05-16T14:33:47;2.10;;;1.00;;
13807;SDS011;40769;51.512;5.494;2023-05-16T14:36:13;1.35;;;0.95;;
13807;SDS011;40769;51.512;5.494;2023-05-16T14:38:38;2.22;;;1.08;;
13807;SDS011;40769;51.512;5.494;2023-05-16T14:41:04;1.90;;;0.98;;
13807;SDS011;40769;51.512;5.494;2023-05-16T14:43:30;1.95;;;0.85;;
13807;SDS011;40769;51.512;5.494;2023-05-16T14:45:55;2.60;;;1.00;;
13807;SDS011;40769;51.512;5.494;2023-05-16T14:48:21;2.65;;;1.02;;
13807;SDS011;40769;51.512;5.494;2023-05-16T14:50:46;2.08;;;0.90;;
13807;SDS011;40769;51.512;5.494;2023-05-16T14:53:12;1.45;;;0.93;;
13807;SDS011;40769;51.512;5.494;2023-05-16T14:55:38;2.20;;;1.20;;
13807;SDS011;40769;51.512;5.494;2023-05-16T14:58:04;1.75;;;1.00;;
13807;SDS011;40769;51.512;5.494;2023-05-16T15:00:30;1.20;;;0.90;;
13807;SDS011;40769;51.512;5.494;2023-05-16T15:02:56;2.10;;;0.85;;
13807;SDS011;40769;51.512;5.494;2023-05-16T15:05:21;2.28;;;1.17;;
13807;SDS011;40769;51.512;5.494;2023-05-16T15:07:49;3.10;;;1.08;;
13807;SDS011;40769;51.512;5.494;2023-05-16T15:10:15;3.58;;;1.15;;
13807;SDS011;40769;51.512;5.494;2023-05-16T15:12:41;2.75;;;0.90;;
13807;SDS011;40769;51.512;5.494;2023-05-16T15:15:07;1.25;;;0.88;;
13807;SDS011;40769;51.512;5.494;2023-05-16T15:17:37;1.95;;;0.90;;
13807;SDS011;40769;51.512;5.494;2023-05-16T15:20:06;1.85;;;0.88;;
13807;SDS011;40769;51.512;5.494;2023-05-16T15:22:33;1.77;;;0.93;;